sensor_id;sensor_type;location;lat;lon;timestamp;P1;durP1;ratioP1;P2;durP2;ratioP2
44165;SDS011;30476;53.468;9.826;2022-12-22T00:01:27;18.07;;;12.40;;
44165;SDS011;30476;53.468;9.826;2022-12-22T00:04:12;20.30;;;13.50;;
44165;SDS011;30476;53.468;9.826;2022-12-22T00:06:57;21.17;;;12.60;;
44165;SDS011;30476;53.468;9.826;2022-12-22T00:09:41;23.57;;;14.47;;
44165;SDS011;30476;53.468;9.826;2022-12-22T00:12:26;25.40;;;13.70;;
44165;SDS011;30476;53.468;9.826;2022-12-22T00:15:12;19.40;;;12.93;;
44165;SDS011;30476;53.468;9.826;2022-12-22T00:17:59;25.63;;;14.27;;
44165;SDS011;30476;53.468;9.826;2022-12-22T00:20:43;20.00;;;12.60;;
44165;SDS011;30476;53.468;9.826;2022-12-22T00:23:28;17.80;;;12.60;;
44165;SDS011;30476;53.468;9.826;2022-12-22T00:26:12;16.90;;;12.40;;
44165;SDS011;30476;53.468;9.826;2022-12-22T00:28:57;19.07;;;12.00;;
44165;SDS011;30476;53.468;9.826;2022-12-22T00:31:41;19.33;;;12.67;;
44165;SDS011;30476;53.468;9.826;2022-12-22T00:34:26;18.57;;;12.77;;
44165;SDS011;30476;53.468;9.826;2022-12-22T00:37:12;18.03;;;11.33;;
44165;SDS011;30476;53.468;9.826;2022-12-22T00:40:00;14.20;;;10.50;;
44165;SDS011;30476;53.468;9.826;2022-12-22T00:42:58;17.47;;;11.43;;
44165;SDS011;30476;53.468;9.826;2022-12-22T00:45:43;17.03;;;12.47;;
44165;SDS011;30476;53.468;9.826;2022-12-22T00:48:27;15.47;;;11.40;;
44165;SDS011;30476;53.468;9.826;2022-12-22T00:51:12;18.57;;;13.50;;
44165;SDS011;30476;53.468;9.826;2022-12-22T00:53:56;20.20;;;12.87;;
44165;SDS011;30476;53.468;9.826;2022-12-22T00:56:41;17.93;;;13.23;;
44165;SDS011;30476;53.468;9.826;2022-12-22T00:59:26;19.73;;;13.40;;
44165;SDS011;30476;53.468;9.826;2022-12-22T01:02:11;19.30;;;13.50;;
44165;SDS011;30476;53.468;9.826;2022-12-22T01:04:56;16.97;;;13.20;;
44165;SDS011;30476;53.468;9.826;2022-12-22T01:07:40;20.03;;;13.13;;
44165;SDS011;30476;53.468;9.826;2022-12-22T01:10:29;24.93;;;17.70;;
44165;SDS011;30476;53.468;9.826;2022-12-22T01:13:14;20.30;;;13.80;;
44165;SDS011;30476;53.468;9.826;2022-12-22T01:15:59;24.30;;;15.13;;
44165;SDS011;30476;53.468;9.826;2022-12-22T01:18:44;19.20;;;13.63;;
44165;SDS011;30476;53.468;9.826;2022-12-22T01:21:29;20.97;;;13.80;;
44165;SDS011;30476;53.468;9.826;2022-12-22T01:24:14;19.13;;;12.43;;
44165;SDS011;30476;53.468;9.826;2022-12-22T01:27:01;22.43;;;13.80;;
44165;SDS011;30476;53.468;9.826;2022-12-22T01:29:46;22.13;;;14.93;;
44165;SDS011;30476;53.468;9.826;2022-12-22T01:32:31;18.90;;;13.87;;
44165;SDS011;30476;53.468;9.826;2022-12-22T01:35:19;19.30;;;13.57;;
44165;SDS011;30476;53.468;9.826;2022-12-22T01:38:05;18.60;;;12.93;;
44165;SDS011;30476;53.468;9.826;2022-12-22T01:40:50;17.90;;;13.10;;
44165;SDS011;30476;53.468;9.826;2022-12-22T01:43:35;18.50;;;12.60;;
44165;SDS011;30476;53.468;9.826;2022-12-22T01:46:22;21.03;;;13.93;;
44165;SDS011;30476;53.468;9.826;2022-12-22T01:49:15;16.93;;;11.97;;
44165;SDS011;30476;53.468;9.826;2022-12-22T01:52:13;17.07;;;13.27;;
44165;SDS011;30476;53.468;9.826;2022-12-22T01:55:01;15.93;;;11.43;;
44165;SDS011;30476;53.468;9.826;2022-12-22T01:57:48;20.13;;;13.30;;
44165;SDS011;30476;53.468;9.826;2022-12-22T02:00:33;15.20;;;11.43;;
44165;SDS011;30476;53.468;9.826;2022-12-22T02:03:19;16.10;;;12.10;;
44165;SDS011;30476;53.468;9.826;2022-12-22T02:06:12;18.03;;;12.73;;
44165;SDS011;30476;53.468;9.826;2022-12-22T02:09:26;15.07;;;11.10;;
44165;SDS011;30476;53.468;9.826;2022-12-22T02:12:47;15.67;;;12.03;;
44165;SDS011;30476;53.468;9.826;2022-12-22T02:16:00;16.70;;;12.43;;
44165;SDS011;30476;53.468;9.826;2022-12-22T02:22:08;13.30;;;10.60;;
44165;SDS011;30476;53.468;9.826;2022-12-22T02:25:27;17.77;;;11.27;;
44165;SDS011;30476;53.468;9.826;2022-12-22T02:28:11;15.30;;;10.70;;
44165;SDS011;30476;53.468;9.826;2022-12-22T02:30:56;13.60;;;10.17;;
44165;SDS011;30476;53.468;9.826;2022-12-22T02:33:41;14.13;;;10.90;;
44165;SDS011;30476;53.468;9.826;2022-12-22T02:42:27;17.70;;;14.00;;
44165;SDS011;30476;53.468;9.826;2022-12-22T02:48:23;14.93;;;9.90;;
44165;SDS011;30476;53.468;9.826;2022-12-22T02:51:20;16.37;;;10.50;;
44165;SDS011;30476;53.468;9.826;2022-12-22T02:54:08;12.53;;;9.90;;
44165;SDS011;30476;53.468;9.826;2022-12-22T02:56:54;14.90;;;10.03;;
44165;SDS011;30476;53.468;9.826;2022-12-22T02:59:39;19.50;;;10.90;;
44165;SDS011;30476;53.468;9.826;2022-12-22T03:02:23;15.23;;;10.20;;
44165;SDS011;30476;53.468;9.826;2022-12-22T03:05:08;12.60;;;9.43;;
44165;SDS011;30476;53.468;9.826;2022-12-22T03:07:53;15.83;;;11.50;;
44165;SDS011;30476;53.468;9.826;2022-12-22T03:10:37;11.63;;;10.07;;
44165;SDS011;30476;53.468;9.826;2022-12-22T03:13:22;11.33;;;9.30;;
44165;SDS011;30476;53.468;9.826;2022-12-22T03:16:06;14.73;;;10.80;;
44165;SDS011;30476;53.468;9.826;2022-12-22T03:18:51;13.13;;;10.37;;
44165;SDS011;30476;53.468;9.826;2022-12-22T03:21:36;13.50;;;10.07;;
44165;SDS011;30476;53.468;9.826;2022-12-22T03:24:20;14.33;;;11.27;;
44165;SDS011;30476;53.468;9.826;2022-12-22T03:27:05;14.60;;;10.83;;
44165;SDS011;30476;53.468;9.826;2022-12-22T03:29:31;15.70;;;11.70;;
44165;SDS011;30476;53.468;9.826;2022-12-22T03:31:56;15.30;;;11.20;;
44165;SDS011;30476;53.468;9.826;2022-12-22T03:34:22;15.17;;;10.40;;
44165;SDS011;30476;53.468;9.826;2022-12-22T03:36:48;13.60;;;10.73;;
44165;SDS011;30476;53.468;9.826;2022-12-22T03:39:14;14.00;;;10.63;;
44165;SDS011;30476;53.468;9.826;2022-12-22T03:41:39;16.87;;;11.37;;
44165;SDS011;30476;53.468;9.826;2022-12-22T03:44:24;17.70;;;11.00;;
44165;SDS011;30476;53.468;9.826;2022-12-22T03:47:09;15.37;;;10.67;;
44165;SDS011;30476;53.468;9.826;2022-12-22T03:49:34;18.30;;;11.50;;
44165;SDS011;30476;53.468;9.826;2022-12-22T03:52:00;14.33;;;10.77;;
44165;SDS011;30476;53.468;9.826;2022-12-22T03:54:26;12.50;;;10.33;;
44165;SDS011;30476;53.468;9.826;2022-12-22T03:56:52;17.93;;;12.50;;
44165;SDS011;30476;53.468;9.826;2022-12-22T03:59:18;16.10;;;12.27;;
44165;SDS011;30476;53.468;9.826;2022-12-22T04:01:46;15.50;;;10.83;;
44165;SDS011;30476;53.468;9.826;2022-12-22T04:04:14;11.53;;;9.63;;
44165;SDS011;30476;53.468;9.826;2022-12-22T04:06:41;14.03;;;10.30;;
44165;SDS011;30476;53.468;9.826;2022-12-22T04:09:07;12.23;;;9.77;;
44165;SDS011;30476;53.468;9.826;2022-12-22T04:11:33;14.77;;;10.00;;
44165;SDS011;30476;53.468;9.826;2022-12-22T04:14:18;10.53;;;9.17;;
44165;SDS011;30476;53.468;9.826;2022-12-22T04:16:44;13.33;;;9.60;;
44165;SDS011;30476;53.468;9.826;2022-12-22T04:19:10;11.67;;;9.30;;
44165;SDS011;30476;53.468;9.826;2022-12-22T04:21:36;10.60;;;8.57;;
44165;SDS011;30476;53.468;9.826;2022-12-22T04:24:02;13.50;;;9.20;;
44165;SDS011;30476;53.468;9.826;2022-12-22T04:26:28;8.93;;;7.73;;
44165;SDS011;30476;53.468;9.826;2022-12-22T04:28:54;9.80;;;8.80;;
44165;SDS011;30476;53.468;9.826;2022-12-22T04:31:20;8.90;;;8.00;;
44165;SDS011;30476;53.468;9.826;2022-12-22T04:33:46;11.23;;;7.83;;
44165;SDS011;30476;53.468;9.826;2022-12-22T04:36:13;9.70;;;8.20;;
44165;SDS011;30476;53.468;9.826;2022-12-22T04:38:39;12.00;;;8.30;;
44165;SDS011;30476;53.468;9.826;2022-12-22T04:41:05;11.83;;;8.97;;
44165;SDS011;30476;53.468;9.826;2022-12-22T04:43:31;14.13;;;9.63;;
44165;SDS011;30476;53.468;9.826;2022-12-22T04:45:57;11.73;;;8.90;;
44165;SDS011;30476;53.468;9.826;2022-12-22T04:48:23;12.77;;;9.73;;
44165;SDS011;30476;53.468;9.826;2022-12-22T04:50:54;15.43;;;9.63;;
44165;SDS011;30476;53.468;9.826;2022-12-22T04:53:21;14.67;;;10.80;;
44165;SDS011;30476;53.468;9.826;2022-12-22T04:55:49;12.13;;;10.13;;
44165;SDS011;30476;53.468;9.826;2022-12-22T04:58:19;14.60;;;10.17;;
44165;SDS011;30476;53.468;9.826;2022-12-22T05:00:45;15.67;;;10.50;;
44165;SDS011;30476;53.468;9.826;2022-12-22T05:03:10;13.67;;;9.43;;
44165;SDS011;30476;53.468;9.826;2022-12-22T05:05:37;14.50;;;10.30;;
44165;SDS011;30476;53.468;9.826;2022-12-22T05:08:03;15.30;;;10.73;;
44165;SDS011;30476;53.468;9.826;2022-12-22T05:10:29;15.00;;;11.00;;
44165;SDS011;30476;53.468;9.826;2022-12-22T05:12:55;14.97;;;11.30;;
44165;SDS011;30476;53.468;9.826;2022-12-22T05:15:28;17.43;;;11.37;;
44165;SDS011;30476;53.468;9.826;2022-12-22T05:17:56;18.90;;;11.17;;
44165;SDS011;30476;53.468;9.826;2022-12-22T05:20:23;13.80;;;10.80;;
44165;SDS011;30476;53.468;9.826;2022-12-22T05:22:50;14.93;;;11.03;;
44165;SDS011;30476;53.468;9.826;2022-12-22T05:25:15;17.37;;;12.37;;
44165;SDS011;30476;53.468;9.826;2022-12-22T05:27:46;18.07;;;12.43;;
44165;SDS011;30476;53.468;9.826;2022-12-22T05:30:13;16.23;;;11.20;;
44165;SDS011;30476;53.468;9.826;2022-12-22T05:32:41;14.97;;;11.50;;
44165;SDS011;30476;53.468;9.826;2022-12-22T05:35:07;18.17;;;11.80;;
44165;SDS011;30476;53.468;9.826;2022-12-22T05:37:33;18.80;;;12.00;;
44165;SDS011;30476;53.468;9.826;2022-12-22T05:39:59;18.07;;;12.77;;
44165;SDS011;30476;53.468;9.826;2022-12-22T05:42:25;18.80;;;13.40;;
44165;SDS011;30476;53.468;9.826;2022-12-22T05:45:11;17.60;;;13.00;;
44165;SDS011;30476;53.468;9.826;2022-12-22T05:47:42;16.63;;;12.07;;
44165;SDS011;30476;53.468;9.826;2022-12-22T05:50:10;22.30;;;13.40;;
44165;SDS011;30476;53.468;9.826;2022-12-22T05:52:38;19.43;;;13.07;;
44165;SDS011;30476;53.468;9.826;2022-12-22T05:55:05;18.87;;;12.90;;
44165;SDS011;30476;53.468;9.826;2022-12-22T05:57:31;19.67;;;13.10;;
44165;SDS011;30476;53.468;9.826;2022-12-22T05:59:57;19.73;;;13.57;;
44165;SDS011;30476;53.468;9.826;2022-12-22T06:02:23;19.03;;;13.30;;
44165;SDS011;30476;53.468;9.826;2022-12-22T06:04:49;19.37;;;13.33;;
44165;SDS011;30476;53.468;9.826;2022-12-22T06:07:14;19.77;;;13.30;;
44165;SDS011;30476;53.468;9.826;2022-12-22T06:09:40;20.10;;;13.47;;
44165;SDS011;30476;53.468;9.826;2022-12-22T06:12:06;19.70;;;14.00;;
44165;SDS011;30476;53.468;9.826;2022-12-22T06:14:32;16.83;;;12.77;;
44165;SDS011;30476;53.468;9.826;2022-12-22T06:16:58;22.33;;;14.23;;
44165;SDS011;30476;53.468;9.826;2022-12-22T06:19:24;20.93;;;13.20;;
44165;SDS011;30476;53.468;9.826;2022-12-22T06:21:50;16.63;;;11.70;;
44165;SDS011;30476;53.468;9.826;2022-12-22T06:24:16;17.90;;;12.33;;
44165;SDS011;30476;53.468;9.826;2022-12-22T06:26:42;16.80;;;12.50;;
44165;SDS011;30476;53.468;9.826;2022-12-22T06:29:08;20.40;;;13.40;;
44165;SDS011;30476;53.468;9.826;2022-12-22T06:31:34;16.00;;;11.77;;
44165;SDS011;30476;53.468;9.826;2022-12-22T06:33:59;21.97;;;14.50;;
44165;SDS011;30476;53.468;9.826;2022-12-22T06:36:25;19.73;;;12.33;;
44165;SDS011;30476;53.468;9.826;2022-12-22T06:38:51;22.23;;;14.03;;
44165;SDS011;30476;53.468;9.826;2022-12-22T06:41:17;19.83;;;13.70;;
44165;SDS011;30476;53.468;9.826;2022-12-22T06:44:05;17.63;;;12.77;;
44165;SDS011;30476;53.468;9.826;2022-12-22T06:46:31;20.17;;;12.73;;
44165;SDS011;30476;53.468;9.826;2022-12-22T06:48:57;21.90;;;13.77;;
44165;SDS011;30476;53.468;9.826;2022-12-22T06:51:23;19.60;;;13.50;;
44165;SDS011;30476;53.468;9.826;2022-12-22T06:53:48;18.27;;;12.97;;
44165;SDS011;30476;53.468;9.826;2022-12-22T06:56:14;20.37;;;13.20;;
44165;SDS011;30476;53.468;9.826;2022-12-22T06:58:40;20.57;;;14.07;;
44165;SDS011;30476;53.468;9.826;2022-12-22T07:01:06;18.57;;;12.73;;
44165;SDS011;30476;53.468;9.826;2022-12-22T07:03:31;19.23;;;14.13;;
44165;SDS011;30476;53.468;9.826;2022-12-22T07:05:57;17.43;;;12.20;;
44165;SDS011;30476;53.468;9.826;2022-12-22T07:08:23;17.20;;;13.53;;
44165;SDS011;30476;53.468;9.826;2022-12-22T07:10:49;17.00;;;12.07;;
44165;SDS011;30476;53.468;9.826;2022-12-22T07:13:33;21.40;;;13.17;;
44165;SDS011;30476;53.468;9.826;2022-12-22T07:16:04;24.43;;;13.13;;
44165;SDS011;30476;53.468;9.826;2022-12-22T07:18:32;19.10;;;12.70;;
44165;SDS011;30476;53.468;9.826;2022-12-22T07:21:01;18.10;;;13.03;;
44165;SDS011;30476;53.468;9.826;2022-12-22T07:23:29;17.20;;;12.87;;
44165;SDS011;30476;53.468;9.826;2022-12-22T07:25:55;18.07;;;12.07;;
44165;SDS011;30476;53.468;9.826;2022-12-22T07:28:22;15.37;;;11.43;;
44165;SDS011;30476;53.468;9.826;2022-12-22T07:30:48;15.90;;;11.50;;
44165;SDS011;30476;53.468;9.826;2022-12-22T07:33:15;16.80;;;11.83;;
44165;SDS011;30476;53.468;9.826;2022-12-22T07:35:41;16.77;;;12.40;;
44165;SDS011;30476;53.468;9.826;2022-12-22T07:38:07;16.90;;;10.83;;
44165;SDS011;30476;53.468;9.826;2022-12-22T07:40:33;17.80;;;11.47;;
44165;SDS011;30476;53.468;9.826;2022-12-22T07:42:59;16.30;;;11.67;;
44165;SDS011;30476;53.468;9.826;2022-12-22T07:45:25;14.87;;;10.07;;
44165;SDS011;30476;53.468;9.826;2022-12-22T07:47:57;19.63;;;12.10;;
44165;SDS011;30476;53.468;9.826;2022-12-22T07:50:24;16.30;;;10.87;;
44165;SDS011;30476;53.468;9.826;2022-12-22T07:52:55;14.83;;;11.17;;
44165;SDS011;30476;53.468;9.826;2022-12-22T07:55:23;16.70;;;11.40;;
44165;SDS011;30476;53.468;9.826;2022-12-22T07:57:50;15.77;;;10.10;;
44165;SDS011;30476;53.468;9.826;2022-12-22T08:00:16;13.90;;;11.00;;
44165;SDS011;30476;53.468;9.826;2022-12-22T08:02:47;17.70;;;11.27;;
44165;SDS011;30476;53.468;9.826;2022-12-22T08:05:13;14.07;;;9.83;;
44165;SDS011;30476;53.468;9.826;2022-12-22T08:07:39;15.07;;;9.90;;
44165;SDS011;30476;53.468;9.826;2022-12-22T08:10:05;15.20;;;10.07;;
44165;SDS011;30476;53.468;9.826;2022-12-22T08:12:31;22.37;;;12.17;;
44165;SDS011;30476;53.468;9.826;2022-12-22T08:14:57;16.00;;;11.67;;
44165;SDS011;30476;53.468;9.826;2022-12-22T08:17:25;13.33;;;9.37;;
44165;SDS011;30476;53.468;9.826;2022-12-22T08:19:52;15.03;;;9.90;;
44165;SDS011;30476;53.468;9.826;2022-12-22T08:22:18;15.30;;;10.03;;
44165;SDS011;30476;53.468;9.826;2022-12-22T08:24:50;14.73;;;11.27;;
44165;SDS011;30476;53.468;9.826;2022-12-22T08:27:17;14.60;;;10.13;;
44165;SDS011;30476;53.468;9.826;2022-12-22T08:29:47;15.30;;;10.37;;
44165;SDS011;30476;53.468;9.826;2022-12-22T08:32:15;14.60;;;10.67;;
44165;SDS011;30476;53.468;9.826;2022-12-22T08:34:41;19.60;;;10.70;;
44165;SDS011;30476;53.468;9.826;2022-12-22T08:37:10;13.03;;;9.33;;
44165;SDS011;30476;53.468;9.826;2022-12-22T08:39:40;12.23;;;10.23;;
44165;SDS011;30476;53.468;9.826;2022-12-22T08:42:08;17.43;;;11.07;;
44165;SDS011;30476;53.468;9.826;2022-12-22T08:44:37;14.57;;;10.67;;
44165;SDS011;30476;53.468;9.826;2022-12-22T08:47:03;13.37;;;11.17;;
44165;SDS011;30476;53.468;9.826;2022-12-22T08:49:30;15.37;;;10.03;;
44165;SDS011;30476;53.468;9.826;2022-12-22T08:51:56;14.57;;;10.50;;
44165;SDS011;30476;53.468;9.826;2022-12-22T08:54:22;17.10;;;12.63;;
44165;SDS011;30476;53.468;9.826;2022-12-22T08:56:48;14.63;;;10.70;;
44165;SDS011;30476;53.468;9.826;2022-12-22T08:59:14;18.60;;;12.03;;
44165;SDS011;30476;53.468;9.826;2022-12-22T09:01:41;14.07;;;10.87;;
44165;SDS011;30476;53.468;9.826;2022-12-22T09:04:12;16.73;;;11.40;;
44165;SDS011;30476;53.468;9.826;2022-12-22T09:06:39;13.17;;;10.20;;
44165;SDS011;30476;53.468;9.826;2022-12-22T09:09:05;17.37;;;12.60;;
44165;SDS011;30476;53.468;9.826;2022-12-22T09:11:33;14.47;;;10.57;;
44165;SDS011;30476;53.468;9.826;2022-12-22T09:13:59;15.93;;;11.20;;
44165;SDS011;30476;53.468;9.826;2022-12-22T09:16:27;19.70;;;13.30;;
44165;SDS011;30476;53.468;9.826;2022-12-22T09:18:54;16.60;;;11.67;;
44165;SDS011;30476;53.468;9.826;2022-12-22T09:21:20;18.30;;;12.23;;
44165;SDS011;30476;53.468;9.826;2022-12-22T09:23:47;19.03;;;12.90;;
44165;SDS011;30476;53.468;9.826;2022-12-22T09:26:14;23.43;;;13.47;;
44165;SDS011;30476;53.468;9.826;2022-12-22T09:28:42;19.07;;;12.23;;
44165;SDS011;30476;53.468;9.826;2022-12-22T09:31:08;20.30;;;12.90;;
44165;SDS011;30476;53.468;9.826;2022-12-22T09:33:35;22.60;;;13.87;;
44165;SDS011;30476;53.468;9.826;2022-12-22T09:36:11;21.57;;;14.17;;
44165;SDS011;30476;53.468;9.826;2022-12-22T09:38:39;20.03;;;12.67;;
44165;SDS011;30476;53.468;9.826;2022-12-22T09:41:06;22.67;;;13.80;;
44165;SDS011;30476;53.468;9.826;2022-12-22T09:43:39;22.70;;;15.37;;
44165;SDS011;30476;53.468;9.826;2022-12-22T09:46:39;23.37;;;14.33;;
44165;SDS011;30476;53.468;9.826;2022-12-22T09:48:59;25.10;;;16.50;;
44165;SDS011;30476;53.468;9.826;2022-12-22T09:51:26;23.27;;;15.07;;
44165;SDS011;30476;53.468;9.826;2022-12-22T09:53:55;25.53;;;16.30;;
44165;SDS011;30476;53.468;9.826;2022-12-22T09:56:23;29.43;;;16.00;;
44165;SDS011;30476;53.468;9.826;2022-12-22T09:58:51;27.70;;;17.40;;
44165;SDS011;30476;53.468;9.826;2022-12-22T10:09:41;27.57;;;16.50;;
44165;SDS011;30476;53.468;9.826;2022-12-22T10:12:15;29.17;;;16.90;;
44165;SDS011;30476;53.468;9.826;2022-12-22T10:14:43;30.40;;;17.10;;
44165;SDS011;30476;53.468;9.826;2022-12-22T10:22:58;34.73;;;19.70;;
44165;SDS011;30476;53.468;9.826;2022-12-22T10:25:31;29.10;;;18.47;;
44165;SDS011;30476;53.468;9.826;2022-12-22T10:28:06;28.00;;;16.50;;
44165;SDS011;30476;53.468;9.826;2022-12-22T10:30:37;36.80;;;18.50;;
44165;SDS011;30476;53.468;9.826;2022-12-22T10:38:32;31.07;;;16.87;;
44165;SDS011;30476;53.468;9.826;2022-12-22T10:41:19;31.53;;;17.80;;
44165;SDS011;30476;53.468;9.826;2022-12-22T10:43:52;31.50;;;16.97;;
44165;SDS011;30476;53.468;9.826;2022-12-22T10:46:30;27.27;;;16.60;;
44165;SDS011;30476;53.468;9.826;2022-12-22T10:49:11;29.30;;;15.37;;
44165;SDS011;30476;53.468;9.826;2022-12-22T10:54:44;27.57;;;15.97;;
44165;SDS011;30476;53.468;9.826;2022-12-22T11:04:54;24.30;;;15.10;;
44165;SDS011;30476;53.468;9.826;2022-12-22T11:07:36;28.13;;;16.27;;
44165;SDS011;30476;53.468;9.826;2022-12-22T11:10:14;28.10;;;15.37;;
44165;SDS011;30476;53.468;9.826;2022-12-22T11:15:28;23.80;;;14.67;;
44165;SDS011;30476;53.468;9.826;2022-12-22T11:23:39;24.70;;;14.50;;
44165;SDS011;30476;53.468;9.826;2022-12-22T11:26:41;24.03;;;15.70;;
44165;SDS011;30476;53.468;9.826;2022-12-22T11:37:26;28.77;;;16.37;;
44165;SDS011;30476;53.468;9.826;2022-12-22T11:40:13;25.80;;;13.70;;
44165;SDS011;30476;53.468;9.826;2022-12-22T11:50:52;22.60;;;13.63;;
44165;SDS011;30476;53.468;9.826;2022-12-22T11:56:12;23.93;;;12.70;;
44165;SDS011;30476;53.468;9.826;2022-12-22T11:58:51;22.23;;;13.47;;
44165;SDS011;30476;53.468;9.826;2022-12-22T12:01:50;20.90;;;13.30;;
44165;SDS011;30476;53.468;9.826;2022-12-22T12:10:02;19.50;;;12.87;;
44165;SDS011;30476;53.468;9.826;2022-12-22T12:13:02;17.10;;;11.70;;
44165;SDS011;30476;53.468;9.826;2022-12-22T12:15:46;21.00;;;12.40;;
44165;SDS011;30476;53.468;9.826;2022-12-22T12:21:01;16.90;;;11.20;;
44165;SDS011;30476;53.468;9.826;2022-12-22T12:29:20;17.60;;;11.10;;
44165;SDS011;30476;53.468;9.826;2022-12-22T12:34:37;14.93;;;10.90;;
44165;SDS011;30476;53.468;9.826;2022-12-22T12:37:12;18.77;;;11.77;;
44165;SDS011;30476;53.468;9.826;2022-12-22T12:42:26;19.60;;;12.10;;
44165;SDS011;30476;53.468;9.826;2022-12-22T12:44:56;15.30;;;10.50;;
44165;SDS011;30476;53.468;9.826;2022-12-22T12:57:54;15.67;;;10.90;;
44165;SDS011;30476;53.468;9.826;2022-12-22T13:03:07;24.83;;;10.50;;
44165;SDS011;30476;53.468;9.826;2022-12-22T13:05:50;14.87;;;8.60;;
44165;SDS011;30476;53.468;9.826;2022-12-22T13:08:22;17.37;;;9.63;;
44165;SDS011;30476;53.468;9.826;2022-12-22T13:15:49;13.03;;;9.30;;
44165;SDS011;30476;53.468;9.826;2022-12-22T13:21:20;13.60;;;7.80;;
44165;SDS011;30476;53.468;9.826;2022-12-22T13:23:56;10.10;;;7.40;;
44165;SDS011;30476;53.468;9.826;2022-12-22T13:26:32;13.70;;;7.17;;
44165;SDS011;30476;53.468;9.826;2022-12-22T13:31:43;14.00;;;7.10;;
44165;SDS011;30476;53.468;9.826;2022-12-22T13:37:01;15.60;;;8.30;;
44165;SDS011;30476;53.468;9.826;2022-12-22T13:40:06;18.50;;;7.77;;
44165;SDS011;30476;53.468;9.826;2022-12-22T13:42:36;13.87;;;8.90;;
44165;SDS011;30476;53.468;9.826;2022-12-22T13:45:16;13.60;;;7.27;;
44165;SDS011;30476;53.468;9.826;2022-12-22T13:47:47;12.60;;;9.20;;
44165;SDS011;30476;53.468;9.826;2022-12-22T13:50:24;14.93;;;7.43;;
44165;SDS011;30476;53.468;9.826;2022-12-22T13:52:51;9.47;;;7.40;;
44165;SDS011;30476;53.468;9.826;2022-12-22T13:55:25;14.57;;;8.30;;
44165;SDS011;30476;53.468;9.826;2022-12-22T13:57:53;13.10;;;8.70;;
44165;SDS011;30476;53.468;9.826;2022-12-22T14:00:23;12.80;;;7.67;;
44165;SDS011;30476;53.468;9.826;2022-12-22T14:02:50;11.77;;;7.73;;
44165;SDS011;30476;53.468;9.826;2022-12-22T14:05:17;14.33;;;9.33;;
44165;SDS011;30476;53.468;9.826;2022-12-22T14:08:03;19.23;;;8.77;;
44165;SDS011;30476;53.468;9.826;2022-12-22T14:10:42;11.67;;;7.80;;
44165;SDS011;30476;53.468;9.826;2022-12-22T14:13:19;14.67;;;7.87;;
44165;SDS011;30476;53.468;9.826;2022-12-22T14:15:58;10.53;;;7.57;;
44165;SDS011;30476;53.468;9.826;2022-12-22T14:18:29;14.37;;;7.90;;
44165;SDS011;30476;53.468;9.826;2022-12-22T14:20:57;14.50;;;7.10;;
44165;SDS011;30476;53.468;9.826;2022-12-22T14:23:42;17.30;;;8.00;;
44165;SDS011;30476;53.468;9.826;2022-12-22T14:26:12;15.70;;;9.63;;
44165;SDS011;30476;53.468;9.826;2022-12-22T14:28:46;12.33;;;6.60;;
44165;SDS011;30476;53.468;9.826;2022-12-22T14:31:15;15.73;;;8.60;;
44165;SDS011;30476;53.468;9.826;2022-12-22T14:33:52;13.13;;;8.33;;
44165;SDS011;30476;53.468;9.826;2022-12-22T14:36:23;11.57;;;7.90;;
44165;SDS011;30476;53.468;9.826;2022-12-22T14:38:54;12.70;;;7.50;;
44165;SDS011;30476;53.468;9.826;2022-12-22T14:50:45;11.83;;;7.93;;
44165;SDS011;30476;53.468;9.826;2022-12-22T14:52:53;16.73;;;8.20;;
44165;SDS011;30476;53.468;9.826;2022-12-22T14:57:51;15.10;;;8.00;;
44165;SDS011;30476;53.468;9.826;2022-12-22T15:02:49;15.97;;;9.17;;
44165;SDS011;30476;53.468;9.826;2022-12-22T15:05:24;16.27;;;8.80;;
44165;SDS011;30476;53.468;9.826;2022-12-22T15:07:53;17.13;;;9.93;;
44165;SDS011;30476;53.468;9.826;2022-12-22T15:10:20;16.87;;;10.87;;
44165;SDS011;30476;53.468;9.826;2022-12-22T15:12:46;18.23;;;10.20;;
44165;SDS011;30476;53.468;9.826;2022-12-22T15:15:17;18.50;;;11.00;;
44165;SDS011;30476;53.468;9.826;2022-12-22T15:17:46;15.23;;;9.50;;
44165;SDS011;30476;53.468;9.826;2022-12-22T15:20:20;17.57;;;10.20;;
44165;SDS011;30476;53.468;9.826;2022-12-22T15:22:48;18.53;;;8.70;;
44165;SDS011;30476;53.468;9.826;2022-12-22T15:25:15;15.57;;;9.43;;
44165;SDS011;30476;53.468;9.826;2022-12-22T15:27:42;15.07;;;9.20;;
44165;SDS011;30476;53.468;9.826;2022-12-22T15:30:09;17.63;;;11.17;;
44165;SDS011;30476;53.468;9.826;2022-12-22T15:32:38;18.17;;;10.30;;
44165;SDS011;30476;53.468;9.826;2022-12-22T15:35:10;18.70;;;10.63;;
44165;SDS011;30476;53.468;9.826;2022-12-22T15:37:48;16.33;;;8.73;;
44165;SDS011;30476;53.468;9.826;2022-12-22T15:40:18;18.00;;;9.53;;
44165;SDS011;30476;53.468;9.826;2022-12-22T15:42:46;13.77;;;8.20;;
44165;SDS011;30476;53.468;9.826;2022-12-22T15:45:12;17.40;;;9.00;;
44165;SDS011;30476;53.468;9.826;2022-12-22T15:47:42;17.70;;;8.63;;
44165;SDS011;30476;53.468;9.826;2022-12-22T15:50:24;16.30;;;8.30;;
44165;SDS011;30476;53.468;9.826;2022-12-22T15:52:56;13.97;;;8.97;;
44165;SDS011;30476;53.468;9.826;2022-12-22T15:55:23;14.70;;;9.73;;
44165;SDS011;30476;53.468;9.826;2022-12-22T15:57:50;13.63;;;8.10;;
44165;SDS011;30476;53.468;9.826;2022-12-22T16:00:19;11.93;;;8.20;;
44165;SDS011;30476;53.468;9.826;2022-12-22T16:02:45;12.80;;;7.97;;
44165;SDS011;30476;53.468;9.826;2022-12-22T16:05:11;14.07;;;8.33;;
44165;SDS011;30476;53.468;9.826;2022-12-22T16:07:38;14.47;;;8.00;;
44165;SDS011;30476;53.468;9.826;2022-12-22T16:10:05;8.87;;;6.53;;
44165;SDS011;30476;53.468;9.826;2022-12-22T16:12:41;13.23;;;7.47;;
44165;SDS011;30476;53.468;9.826;2022-12-22T16:15:14;12.17;;;7.33;;
44165;SDS011;30476;53.468;9.826;2022-12-22T16:17:39;12.57;;;7.73;;
44165;SDS011;30476;53.468;9.826;2022-12-22T16:20:05;14.27;;;7.17;;
44165;SDS011;30476;53.468;9.826;2022-12-22T16:22:33;12.30;;;7.13;;
44165;SDS011;30476;53.468;9.826;2022-12-22T16:25:01;13.97;;;7.80;;
44165;SDS011;30476;53.468;9.826;2022-12-22T16:27:29;11.27;;;7.10;;
44165;SDS011;30476;53.468;9.826;2022-12-22T16:29:55;13.10;;;7.33;;
44165;SDS011;30476;53.468;9.826;2022-12-22T16:32:23;13.17;;;6.80;;
44165;SDS011;30476;53.468;9.826;2022-12-22T16:37:34;11.60;;;7.10;;
44165;SDS011;30476;53.468;9.826;2022-12-22T16:40:00;13.40;;;6.97;;
44165;SDS011;30476;53.468;9.826;2022-12-22T16:42:26;15.50;;;7.40;;
44165;SDS011;30476;53.468;9.826;2022-12-22T16:44:52;10.33;;;6.53;;
44165;SDS011;30476;53.468;9.826;2022-12-22T16:47:20;14.07;;;6.87;;
44165;SDS011;30476;53.468;9.826;2022-12-22T16:49:49;11.30;;;6.10;;
44165;SDS011;30476;53.468;9.826;2022-12-22T16:52:19;10.10;;;5.87;;
44165;SDS011;30476;53.468;9.826;2022-12-22T16:54:47;9.90;;;6.10;;
44165;SDS011;30476;53.468;9.826;2022-12-22T16:57:13;11.20;;;5.87;;
44165;SDS011;30476;53.468;9.826;2022-12-22T16:59:39;11.50;;;6.13;;
44165;SDS011;30476;53.468;9.826;2022-12-22T17:02:16;13.90;;;6.07;;
44165;SDS011;30476;53.468;9.826;2022-12-22T17:04:48;10.20;;;6.23;;
44165;SDS011;30476;53.468;9.826;2022-12-22T17:07:15;10.37;;;6.30;;
44165;SDS011;30476;53.468;9.826;2022-12-22T17:09:43;10.90;;;5.23;;
44165;SDS011;30476;53.468;9.826;2022-12-22T17:12:16;10.67;;;6.47;;
44165;SDS011;30476;53.468;9.826;2022-12-22T17:14:46;15.67;;;7.13;;